Airfield :
LOGIN :

Register | Disclaimer

   EN    FR    IT 

 










Legend :    VFR   Marginal VFR   IFR   Intensive IFR   Very Intensive IFR
Visi :
Ceiling :
>= 8 km
>= 3000ft
5 to 8 km
1000 to 3000 ft
1500m to 5 km
500 to 1000 ft
800 to 1500m
200 to 500 ft
< 800m
< 200 ft
Symbols :   Thunderstorms  Fog  Heavy snow  Heavy precipitations  Wind > 20 kt
SIGMETs :     Misc.  Thunderstorms  Icing  Turbulence  Mountain Waves  Volcanic Ashes







- Airport Elevation : 97 ft
- IATA code : EBJ


EKEB - Esbjerg

CURRENT METAR :
  • 251150Z AUTO 26015KT 230V290 9999NDV BKN043/// 08/M03 Q1002

EXPIRED METARs :
  • 251120Z AUTO 28015KT 9999NDV BKN046/// 07/M03 Q1002
  • 251050Z AUTO 28014KT 9999NDV SCT047/// 07/M04 Q1002
  • 251020Z AUTO 30013KT 9999NDV FEW050/// 07/M05 Q1002
  • 250950Z AUTO 29011KT 9999NDV BKN047/// 06/M04 Q1001
  • 250920Z AUTO 29011KT 270V340 9999NDV FEW047/// FEW055/// 08/M02 Q1001

TAF TAF EKEB
Valid from the 25 at 12:00 until the 25 at 21:00 UTC


251106Z 2512/2521 28012KT 9999 SCT045
TEMPO 2513/2518 28015G25KT 4000 SHRA BKN014CB
No reported NOTAMs for that airfield.



MET'MAP, your aeronautical weather chart ! - Copyright ORBIFLY December 2007 - Disclaimer

ORBIFLY MET'MAP TEAM :

Programming & Development : Alexandra Zaïnal
Concept & Development : Baudouin d'Aumeries
Co-Development & Prog : Marc-Olivier Méhu
Technical & hardware support : Manuel Goepfert

Contact : metmap@orbifly.com




SOURCES & CREDITS :

   NOAA